createdAt,value
2022-10-22T00:01:02.357Z,100335.66
2022-10-22T00:03:29.279Z,100335.63
2022-10-22T00:05:56.117Z,100342.59
2022-10-22T00:08:22.752Z,100339.13
2022-10-22T00:10:49.410Z,100336.50
2022-10-22T00:13:16.792Z,100342.59
2022-10-22T00:15:43.539Z,100351.28
2022-10-22T00:18:10.141Z,100336.50
2022-10-22T00:20:36.711Z,100315.63
2022-10-22T00:23:03.381Z,100334.78
2022-10-22T00:25:30.913Z,100340.00
2022-10-22T00:27:57.459Z,100345.22
2022-10-22T00:30:23.989Z,100352.16
2022-10-22T00:32:50.519Z,100355.66
2022-10-22T00:35:17.245Z,100361.75
2022-10-22T00:37:43.868Z,100366.97
2022-10-22T00:40:11.145Z,100375.69
2022-10-22T00:42:38.128Z,100375.69
2022-10-22T00:45:08.373Z,100366.97
2022-10-22T00:47:43.602Z,100355.63
2022-10-22T00:50:38.225Z,100366.97
2022-10-22T00:53:10.600Z,100373.06
2022-10-22T00:55:38.991Z,100380.88
2022-10-22T00:58:05.684Z,100383.47
2022-10-22T01:00:32.334Z,100367.81
2022-10-22T01:02:59.650Z,100379.16
2022-10-22T01:05:33.017Z,100374.78
2022-10-22T01:07:59.752Z,100377.38
2022-10-22T01:10:58.933Z,100380.00
2022-10-22T01:13:38.764Z,100351.31
2022-10-22T01:16:14.933Z,100363.47
2022-10-22T01:18:54.191Z,100365.19
2022-10-22T01:21:46.003Z,100358.22
2022-10-22T01:24:31.707Z,100360.00
2022-10-22T01:27:35.110Z,100363.50
2022-10-22T01:30:07.755Z,100358.25
2022-10-22T01:32:51.823Z,100353.00
2022-10-22T01:35:23.616Z,100360.84
2022-10-22T01:37:55.601Z,100356.50
2022-10-22T01:40:23.338Z,100356.50
2022-10-22T01:43:10.967Z,100352.16
2022-10-22T01:45:42.490Z,100340.84
2022-10-22T01:48:17.725Z,100355.63
2022-10-22T01:50:59.675Z,100356.50
2022-10-22T01:53:37.527Z,100357.38
2022-10-22T01:56:29.264Z,100356.47
2022-10-22T01:59:22.886Z,100357.38
2022-10-22T02:02:24.901Z,100363.44
2022-10-22T02:05:03.165Z,100359.09
2022-10-22T02:07:35.666Z,100346.09
2022-10-22T02:10:03.869Z,100352.16
2022-10-22T02:12:32.344Z,100345.19
2022-10-22T02:15:01.452Z,100345.19
2022-10-22T02:17:32.715Z,100336.50
2022-10-22T02:20:23.079Z,100333.00
2022-10-22T02:22:50.046Z,100322.59
2022-10-22T02:25:17.204Z,100327.81
2022-10-22T02:27:49.264Z,100330.41
2022-10-22T02:30:21.348Z,100327.81
2022-10-22T02:33:06.159Z,100323.44
2022-10-22T02:35:34.122Z,100326.94
2022-10-22T02:38:01.437Z,100313.03
2022-10-22T02:40:30.606Z,100323.44
2022-10-22T02:42:57.188Z,100332.16
2022-10-22T02:45:24.138Z,100325.19
2022-10-22T02:47:50.728Z,100318.22
2022-10-22T02:50:17.304Z,100341.72
2022-10-22T02:52:44.215Z,100326.94
2022-10-22T02:55:10.911Z,100331.28
2022-10-22T02:57:37.713Z,100342.56
2022-10-22T03:00:06.506Z,100336.47
2022-10-22T03:02:33.319Z,100351.28
2022-10-22T03:05:00.068Z,100349.50
2022-10-22T03:07:26.756Z,100354.72
2022-10-22T03:09:53.291Z,100358.19
2022-10-22T03:12:19.999Z,100357.34
2022-10-22T03:14:46.890Z,100355.59
2022-10-22T03:17:13.569Z,100366.88
2022-10-22T03:19:40.187Z,100366.03
2022-10-22T03:22:21.744Z,100360.81
2022-10-22T03:24:52.522Z,100374.69
2022-10-22T03:27:21.516Z,100379.91
2022-10-22T03:29:51.016Z,100366.00
2022-10-22T03:32:17.662Z,100371.25
2022-10-22T03:34:44.336Z,100376.41
2022-10-22T03:37:11.355Z,100377.31
2022-10-22T03:39:38.651Z,100372.97
2022-10-22T03:42:06.631Z,100379.88
2022-10-22T03:44:35.195Z,100392.03
2022-10-22T03:47:02.851Z,100385.16
2022-10-22T03:49:29.742Z,100374.72
2022-10-22T03:51:56.529Z,100375.56
2022-10-22T03:54:23.203Z,100376.41
2022-10-22T03:56:49.843Z,100374.72
2022-10-22T03:59:17.046Z,100386.00
2022-10-22T04:01:43.723Z,100380.81
2022-10-22T04:04:10.286Z,100385.16
2022-10-22T04:06:37.102Z,100395.59
2022-10-22T04:09:03.951Z,100405.97
2022-10-22T04:11:30.582Z,100405.13
2022-10-22T04:13:57.149Z,100399.94
2022-10-22T04:16:26.195Z,100407.75
2022-10-22T04:18:55.262Z,100407.72
2022-10-22T04:21:22.071Z,100390.34
2022-10-22T04:23:51.609Z,100406.88
2022-10-22T04:26:20.022Z,100402.53
2022-10-22T04:28:48.267Z,100402.50
2022-10-22T04:31:20.031Z,100405.97
2022-10-22T04:33:47.057Z,100400.75
2022-10-22T04:36:17.515Z,100401.66
2022-10-22T04:38:46.313Z,100399.03
2022-10-22T04:41:20.974Z,100408.59
2022-10-22T04:43:48.414Z,100412.06
2022-10-22T04:46:16.943Z,100399.00
2022-10-22T04:48:45.091Z,100405.94
2022-10-22T04:51:14.489Z,100400.78
2022-10-22T04:53:41.592Z,100405.16
2022-10-22T04:56:22.975Z,100403.38
2022-10-22T04:58:52.558Z,100406.00
2022-10-22T05:01:20.856Z,100406.00
2022-10-22T05:03:49.144Z,100407.75
2022-10-22T05:06:16.632Z,100412.06
2022-10-22T05:08:43.599Z,100417.28
2022-10-22T05:11:21.791Z,100416.41
2022-10-22T05:13:49.156Z,100417.31
2022-10-22T05:16:16.120Z,100409.50
2022-10-22T05:18:44.664Z,100404.25
2022-10-22T05:21:14.192Z,100421.63
2022-10-22T05:23:41.431Z,100425.13
2022-10-22T05:26:09.787Z,100419.06
2022-10-22T05:28:36.729Z,100426.91
2022-10-22T05:31:04.198Z,100432.09
2022-10-22T05:33:32.440Z,100426.00
2022-10-22T05:36:00.044Z,100411.19
2022-10-22T05:38:27.247Z,100443.41
2022-10-22T05:41:15.439Z,100429.47
2022-10-22T05:43:42.363Z,100441.69
2022-10-22T05:46:11.633Z,100433.00
2022-10-22T05:48:38.733Z,100426.03
2022-10-22T05:51:08.231Z,100441.69
2022-10-22T05:53:36.092Z,100425.13
2022-10-22T05:56:04.715Z,100443.44
2022-10-22T05:58:31.359Z,100436.50
2022-10-22T06:01:03.316Z,100444.25
2022-10-22T06:03:31.757Z,100449.47
2022-10-22T06:06:20.564Z,100456.47
2022-10-22T06:08:49.549Z,100462.50
2022-10-22T06:11:17.858Z,100450.38
2022-10-22T06:13:45.904Z,100475.53
2022-10-22T06:16:13.152Z,100481.66
2022-10-22T06:18:40.119Z,100479.91
2022-10-22T06:21:12.919Z,100487.75
2022-10-22T06:23:40.304Z,100481.69
2022-10-22T06:26:07.728Z,100491.28
2022-10-22T06:28:34.978Z,100487.81
2022-10-22T06:31:03.124Z,100494.78
2022-10-22T06:33:32.280Z,100490.44
2022-10-22T06:36:13.154Z,100488.75
2022-10-22T06:38:40.658Z,100479.13
2022-10-22T06:41:09.675Z,100496.50
2022-10-22T06:43:36.867Z,100489.63
2022-10-22T06:46:06.210Z,100484.41
2022-10-22T06:48:33.739Z,100506.94
2022-10-22T06:51:09.809Z,100506.16
2022-10-22T06:53:37.065Z,100507.88
2022-10-22T06:56:09.043Z,100510.53
2022-10-22T06:58:36.001Z,100525.31
2022-10-22T07:01:14.162Z,100519.19
2022-10-22T07:03:41.784Z,100534.00
2022-10-22T07:06:11.135Z,100531.41
2022-10-22T07:08:38.345Z,100530.53
2022-10-22T07:11:10.973Z,100534.88
2022-10-22T07:13:37.609Z,100524.47
2022-10-22T07:16:05.768Z,100542.72
2022-10-22T07:18:33.263Z,100540.09
2022-10-22T07:21:00.391Z,100532.28
2022-10-22T07:23:27.660Z,100526.22
2022-10-22T07:25:57.753Z,100547.13
2022-10-22T07:28:24.874Z,100560.16
2022-10-22T07:30:51.514Z,100554.06
2022-10-22T07:33:18.085Z,100534.91
2022-10-22T07:35:44.916Z,100563.66
2022-10-22T07:38:12.065Z,100562.75
2022-10-22T07:40:38.775Z,100551.47
2022-10-22T07:43:06.833Z,100559.31
2022-10-22T07:45:33.857Z,100562.78
2022-10-22T07:48:00.672Z,100566.25
2022-10-22T07:50:27.385Z,100549.72
2022-10-22T07:52:56.069Z,100551.47
2022-10-22T07:55:25.267Z,100567.97
2022-10-22T07:57:51.830Z,100574.94
2022-10-22T08:00:20.584Z,100568.00
2022-10-22T08:02:49.829Z,100582.78
2022-10-22T08:05:16.616Z,100560.16
2022-10-22T08:07:43.808Z,100572.31
2022-10-22T08:10:12.250Z,100574.94
2022-10-22T08:12:39.154Z,100559.25
2022-10-22T08:15:07.001Z,100585.34
2022-10-22T08:17:33.669Z,100567.03
2022-10-22T08:20:00.260Z,100588.84
2022-10-22T08:22:26.993Z,100579.22
2022-10-22T08:24:53.694Z,100588.78
2022-10-22T08:27:20.338Z,100583.56
2022-10-22T08:29:47.135Z,100591.28
2022-10-22T08:32:13.803Z,100574.72
2022-10-22T08:34:40.533Z,100596.47
2022-10-22T08:37:08.511Z,100594.72
2022-10-22T08:39:35.691Z,100594.66
2022-10-22T08:42:27.354Z,100603.31
2022-10-22T08:45:00.020Z,100596.28
2022-10-22T08:47:38.985Z,100597.88
2022-10-22T08:50:09.379Z,100605.69
2022-10-22T08:52:40.063Z,100597.75
2022-10-22T08:55:14.308Z,100593.31
2022-10-22T08:57:49.927Z,100607.25
2022-10-22T09:00:25.197Z,100608.88
2022-10-22T09:03:10.415Z,100603.53
2022-10-22T09:05:40.069Z,100607.78
2022-10-22T09:08:12.563Z,100607.91
2022-10-22T09:10:46.188Z,100608.63
2022-10-22T09:13:18.106Z,100608.56
2022-10-22T09:16:15.556Z,100611.16
2022-10-22T09:18:56.799Z,100618.75
2022-10-22T09:21:55.382Z,100613.66
2022-10-22T09:24:48.890Z,100613.69
2022-10-22T09:27:19.508Z,100627.34
2022-10-22T09:29:48.238Z,100625.44
2022-10-22T09:32:16.745Z,100620.94
2022-10-22T09:34:48.576Z,100621.53
2022-10-22T09:37:18.578Z,100624.75
2022-10-22T09:39:50.890Z,100640.56
2022-10-22T09:42:19.675Z,100627.44
2022-10-22T09:44:54.977Z,100639.44
2022-10-22T09:47:43.613Z,100635.13
2022-10-22T09:50:38.867Z,100634.09
2022-10-22T09:53:20.747Z,100651.63
2022-10-22T09:55:59.657Z,100651.75
2022-10-22T09:58:27.416Z,100645.31
2022-10-22T10:00:59.368Z,100650.56
2022-10-22T10:03:29.463Z,100663.63
2022-10-22T10:06:02.974Z,100657.69
2022-10-22T10:08:32.501Z,100661.09
2022-10-22T10:11:29.381Z,100662.88
2022-10-22T10:14:04.785Z,100674.34
2022-10-22T10:17:09.084Z,100673.25
2022-10-22T10:20:03.771Z,100666.31
2022-10-22T10:22:52.961Z,100665.09
2022-10-22T10:25:55.456Z,100669.75
2022-10-22T10:28:25.259Z,100680.53
2022-10-22T10:31:08.762Z,100680.31
2022-10-22T10:33:55.024Z,100677.75
2022-10-22T10:37:08.380Z,100683.91
2022-10-22T10:39:52.542Z,100682.72
2022-10-22T10:42:31.896Z,100700.50
2022-10-22T10:45:12.914Z,100683.66
2022-10-22T10:48:01.274Z,100694.50
2022-10-22T10:50:40.465Z,100689.22
2022-10-22T10:53:25.458Z,100692.84
2022-10-22T10:56:18.572Z,100703.19
2022-10-22T10:59:09.600Z,100695.22
2022-10-22T11:01:48.500Z,100691.72
2022-10-22T11:04:24.027Z,100701.28
2022-10-22T11:07:05.883Z,100700.31
2022-10-22T11:09:46.146Z,100713.47
2022-10-22T11:12:19.649Z,100698.72
2022-10-22T11:15:22.826Z,100706.19
2022-10-22T11:17:51.421Z,100705.13
2022-10-22T11:20:32.756Z,100702.47
2022-10-22T11:23:19.376Z,100703.41
2022-10-22T11:25:49.850Z,100701.44
2022-10-22T11:28:41.445Z,100714.66
2022-10-22T11:31:15.985Z,100681.91
2022-10-22T11:34:04.820Z,100671.13
2022-10-22T11:36:42.202Z,100693.56
2022-10-22T11:39:35.715Z,100701.13
2022-10-22T11:42:06.062Z,100707.66
2022-10-22T11:44:46.242Z,100698.56
2022-10-22T11:47:23.902Z,100698.50
2022-10-22T11:50:19.248Z,100689.81
2022-10-22T11:53:04.399Z,100698.50
2022-10-22T11:55:49.332Z,100721.38
2022-10-22T11:58:39.193Z,100718.78
2022-10-22T12:01:08.731Z,100715.63
2022-10-22T12:03:35.432Z,100719.03
2022-10-22T12:06:12.092Z,100720.72
2022-10-22T12:08:49.541Z,100704.94
2022-10-22T12:11:19.384Z,100719.03
2022-10-22T12:13:58.593Z,100721.84
2022-10-22T12:16:55.200Z,100711.75
2022-10-22T12:19:23.159Z,100703.84
2022-10-22T12:21:56.025Z,100705.81
2022-10-22T12:24:25.807Z,100720.03
2022-10-22T12:26:52.876Z,100699.00
2022-10-22T12:29:23.675Z,100711.13
2022-10-22T12:31:50.556Z,100704.56
2022-10-22T12:34:21.669Z,100705.81
2022-10-22T12:36:50.515Z,100716.88
2022-10-22T12:39:21.090Z,100717.69
2022-10-22T12:41:48.071Z,100712.22
2022-10-22T12:44:17.798Z,100703.91
2022-10-22T12:46:47.459Z,100716.06
2022-10-22T12:49:19.193Z,100707.91
2022-10-22T12:51:47.471Z,100712.59
2022-10-22T12:54:23.422Z,100719.97
2022-10-22T12:56:52.396Z,100708.94
2022-10-22T12:59:37.424Z,100713.69
2022-10-22T13:02:25.368Z,100720.28
2022-10-22T13:05:27.298Z,100720.16
2022-10-22T13:08:04.496Z,100724.47
2022-10-22T13:10:34.906Z,100713.94
2022-10-22T13:13:06.795Z,100723.50
2022-10-22T13:15:35.226Z,100727.28
2022-10-22T13:18:16.805Z,100729.88
2022-10-22T13:21:42.303Z,100735.72
2022-10-22T13:24:23.771Z,100740.28
2022-10-22T13:26:53.415Z,100745.69
2022-10-22T13:29:22.286Z,100752.16
2022-10-22T13:31:54.144Z,100743.63
2022-10-22T13:34:23.663Z,100740.03
2022-10-22T13:36:50.738Z,100737.50
2022-10-22T13:39:22.924Z,100734.03
2022-10-22T13:41:50.705Z,100731.88
2022-10-22T13:44:18.655Z,100732.53
2022-10-22T13:46:46.442Z,100731.44
2022-10-22T13:49:17.819Z,100730.50
2022-10-22T13:51:45.122Z,100728.72
2022-10-22T13:54:19.871Z,100733.94
2022-10-22T13:56:48.431Z,100736.63
2022-10-22T13:59:17.247Z,100734.94
2022-10-22T14:01:46.604Z,100740.31
2022-10-22T14:04:14.974Z,100744.69
2022-10-22T14:06:41.649Z,100746.63
2022-10-22T14:09:13.884Z,100761.34
2022-10-22T14:11:40.799Z,100745.81
2022-10-22T14:14:09.134Z,100745.75
2022-10-22T14:16:37.730Z,100744.84
2022-10-22T14:19:07.909Z,100755.47
2022-10-22T14:21:37.750Z,100753.59
2022-10-22T14:24:07.241Z,100755.19
2022-10-22T14:26:36.637Z,100754.19
2022-10-22T14:29:11.714Z,100762.97
2022-10-22T14:34:14.387Z,100768.13
2022-10-22T14:36:43.682Z,100736.94
2022-10-22T14:39:10.401Z,100767.41
2022-10-22T14:41:37.451Z,100772.69
2022-10-22T14:44:04.256Z,100754.47
2022-10-22T14:46:30.950Z,100752.78
2022-10-22T14:48:57.627Z,100758.00
2022-10-22T14:51:24.373Z,100754.59
2022-10-22T14:53:50.931Z,100771.06
2022-10-22T14:56:22.595Z,100769.41
2022-10-22T14:58:49.633Z,100780.75
2022-10-22T15:01:16.629Z,100763.31
2022-10-22T15:03:43.522Z,100765.09
2022-10-22T15:06:10.316Z,100788.63
2022-10-22T15:08:37.242Z,100777.22
2022-10-22T15:11:06.929Z,100789.38
2022-10-22T15:13:34.208Z,100772.03
2022-10-22T15:16:01.393Z,100778.16
2022-10-22T15:18:28.724Z,100789.53
2022-10-22T15:21:00.875Z,100779.03
2022-10-22T15:23:27.953Z,100788.81
2022-10-22T15:25:55.468Z,100776.44
2022-10-22T15:28:22.450Z,100782.66
2022-10-22T15:30:54.323Z,100772.91
2022-10-22T15:33:21.139Z,100791.31
2022-10-22T15:35:47.858Z,100800.16
2022-10-22T15:38:17.357Z,100781.78
2022-10-22T15:40:44.414Z,100798.31
2022-10-22T15:43:11.581Z,100801.88
2022-10-22T15:45:38.927Z,100800.03
2022-10-22T15:48:06.013Z,100807.00
2022-10-22T15:50:37.077Z,100803.53
2022-10-22T15:53:03.716Z,100811.44
2022-10-22T15:55:30.237Z,100798.31
2022-10-22T15:57:59.233Z,100806.13
2022-10-22T16:00:29.141Z,100796.53
2022-10-22T16:02:55.737Z,100808.00
2022-10-22T16:05:22.701Z,100805.41
2022-10-22T16:07:51.458Z,100802.78
2022-10-22T16:10:19.151Z,100805.44
2022-10-22T16:12:45.926Z,100796.75
2022-10-22T16:15:12.509Z,100801.28
2022-10-22T16:17:39.343Z,100798.66
2022-10-22T16:20:06.538Z,100796.91
2022-10-22T16:22:34.010Z,100816.28
2022-10-22T16:25:00.829Z,100821.56
2022-10-22T16:27:27.583Z,100815.50
2022-10-22T16:29:55.637Z,100817.28
2022-10-22T16:32:23.337Z,100812.09
2022-10-22T16:34:50.084Z,100812.16
2022-10-22T16:37:16.706Z,100820.06
2022-10-22T16:39:43.462Z,100814.88
2022-10-22T16:42:10.009Z,100833.19
2022-10-22T16:44:36.621Z,100837.63
2022-10-22T16:47:03.190Z,100844.66
2022-10-22T16:49:29.961Z,100840.34
2022-10-22T16:51:56.632Z,100836.00
2022-10-22T16:54:23.260Z,100836.03
2022-10-22T16:56:49.820Z,100843.97
2022-10-22T16:59:16.562Z,100845.78
2022-10-22T17:01:43.192Z,100823.13
2022-10-22T17:04:10.240Z,100850.16
2022-10-22T17:06:36.858Z,100851.91
2022-10-22T17:09:04.340Z,100847.59
2022-10-22T17:11:36.246Z,100849.34
2022-10-22T17:14:04.888Z,100855.47
2022-10-22T17:16:31.530Z,100843.34
2022-10-22T17:18:58.311Z,100862.59
2022-10-22T17:21:25.107Z,100867.84
2022-10-22T17:23:56.528Z,100866.13
2022-10-22T17:26:26.415Z,100864.41
2022-10-22T17:28:53.321Z,100870.47
2022-10-22T17:31:35.384Z,100867.03
2022-10-22T17:34:01.982Z,100867.91
2022-10-22T17:36:33.229Z,100877.50
2022-10-22T17:39:05.137Z,100876.63
2022-10-22T17:41:34.687Z,100882.75
2022-10-22T17:44:05.712Z,100883.59
2022-10-22T17:46:32.823Z,100892.34
2022-10-22T17:49:05.414Z,100878.34
2022-10-22T17:51:32.743Z,100871.38
2022-10-22T17:53:59.827Z,100876.63
2022-10-22T17:56:29.833Z,100885.31
2022-10-22T17:58:56.728Z,100879.22
2022-10-22T18:01:31.997Z,100901.00
2022-10-22T18:04:01.347Z,100901.88
2022-10-22T18:06:28.684Z,100899.25
2022-10-22T18:08:55.392Z,100900.94
2022-10-22T18:11:24.333Z,100904.44
2022-10-22T18:13:52.350Z,100896.53
2022-10-22T18:16:19.741Z,100911.31
2022-10-22T18:18:51.791Z,100901.78
2022-10-22T18:21:18.722Z,100906.09
2022-10-22T18:23:46.253Z,100911.28
2022-10-22T18:26:13.493Z,100912.13
2022-10-22T18:28:40.071Z,100913.00
2022-10-22T18:31:08.449Z,100912.94
2022-10-22T18:33:36.914Z,100912.94
2022-10-22T18:36:05.478Z,100914.66
2022-10-22T18:38:32.200Z,100912.88
2022-10-22T18:40:58.988Z,100895.41
2022-10-22T18:43:25.696Z,100905.84
2022-10-22T18:45:52.386Z,100910.16
2022-10-22T18:48:20.450Z,100911.00
2022-10-22T18:50:47.231Z,100917.97
2022-10-22T18:53:16.081Z,100925.78
2022-10-22T18:55:42.702Z,100916.94
2022-10-22T18:58:09.302Z,100923.97
2022-10-22T19:00:36.766Z,100906.56
2022-10-22T19:03:03.414Z,100908.28
2022-10-22T19:05:30.600Z,100912.56
2022-10-22T19:07:57.277Z,100900.28
2022-10-22T19:10:23.841Z,100902.91
2022-10-22T19:12:50.507Z,100902.84
2022-10-22T19:15:17.179Z,100888.72
2022-10-22T19:17:43.950Z,100904.38
2022-10-22T19:20:10.950Z,100914.84
2022-10-22T19:22:37.558Z,100920.09
2022-10-22T19:25:06.038Z,100920.91
2022-10-22T19:27:36.446Z,100923.56
2022-10-22T19:30:04.617Z,100920.94
2022-10-22T19:32:31.275Z,100909.56
2022-10-22T19:34:58.044Z,100916.47
2022-10-22T19:37:24.756Z,100915.59
2022-10-22T19:39:51.524Z,100915.56
2022-10-22T19:42:18.297Z,100926.91
2022-10-22T19:44:45.113Z,100913.84
2022-10-22T19:47:12.216Z,100919.88
2022-10-22T19:49:38.937Z,100914.59
2022-10-22T19:52:05.767Z,100898.81
2022-10-22T19:54:32.300Z,100924.22
2022-10-22T19:56:59.063Z,100923.34
2022-10-22T19:59:29.813Z,100908.47
2022-10-22T20:01:58.177Z,100917.97
2022-10-22T20:04:25.026Z,100917.13
2022-10-22T20:06:51.940Z,100925.75
2022-10-22T20:09:18.635Z,100931.66
2022-10-22T20:11:45.513Z,100927.31
2022-10-22T20:14:13.215Z,100925.47
2022-10-22T20:16:40.104Z,100918.50
2022-10-22T20:19:07.756Z,100928.78
2022-10-22T20:21:35.275Z,100928.75
2022-10-22T20:24:02.124Z,100927.03
2022-10-22T20:26:29.523Z,100921.84
2022-10-22T20:28:58.305Z,100932.25
2022-10-22T20:31:27.847Z,100926.94
2022-10-22T20:34:01.073Z,100924.22
2022-10-22T20:36:29.448Z,100934.56
2022-10-22T20:39:06.226Z,100930.28
2022-10-22T20:41:34.794Z,100933.84
2022-10-22T20:44:01.842Z,100937.13
2022-10-22T20:46:31.115Z,100935.22
2022-10-22T20:49:04.630Z,100944.97
2022-10-22T20:51:31.402Z,100937.84
2022-10-22T20:53:58.018Z,100929.09
2022-10-22T20:56:24.840Z,100909.84
2022-10-22T20:58:56.642Z,100926.31
2022-10-22T21:01:24.187Z,100919.41
2022-10-22T21:03:52.616Z,100919.28
2022-10-22T21:06:23.095Z,100923.63
2022-10-22T21:08:50.769Z,100918.28
2022-10-22T21:11:18.139Z,100936.56
2022-10-22T21:13:44.753Z,100931.38
2022-10-22T21:16:13.532Z,100920.28
2022-10-22T21:18:40.228Z,100923.00
2022-10-22T21:21:08.099Z,100923.72
2022-10-22T21:23:36.058Z,100925.50
2022-10-22T21:26:02.693Z,100909.63
2022-10-22T21:30:56.923Z,100929.13
2022-10-22T21:33:23.568Z,100924.97
2022-10-22T21:35:54.961Z,100904.94
2022-10-22T21:38:23.246Z,100923.31
2022-10-22T21:40:50.622Z,100922.34
2022-10-22T21:43:17.861Z,100911.00
2022-10-22T21:45:44.650Z,100930.19
2022-10-22T21:48:15.016Z,100927.69
2022-10-22T21:50:42.999Z,100925.03
2022-10-22T21:53:11.934Z,100931.06
2022-10-22T21:55:40.211Z,100934.56
2022-10-22T21:58:07.713Z,100928.50
2022-10-22T22:00:35.400Z,100931.13
2022-10-22T22:03:02.422Z,100931.16
2022-10-22T22:05:29.627Z,100932.91
2022-10-22T22:07:56.343Z,100934.69
2022-10-22T22:10:25.110Z,100935.56
2022-10-22T22:12:52.349Z,100942.56
2022-10-22T22:15:20.452Z,100947.91
2022-10-22T22:17:47.231Z,100946.94
2022-10-22T22:20:13.816Z,100936.47
2022-10-22T22:22:40.675Z,100930.50
2022-10-22T22:25:07.668Z,100931.41
2022-10-22T22:27:34.467Z,100934.66
2022-10-22T22:30:01.012Z,100934.00
2022-10-22T22:32:27.632Z,100933.09
2022-10-22T22:34:54.477Z,100932.25
2022-10-22T22:37:21.218Z,100924.41
2022-10-22T22:39:47.820Z,100929.75
2022-10-22T22:42:14.465Z,100922.91
2022-10-22T22:44:41.069Z,100914.09
2022-10-22T22:47:07.674Z,100924.75
2022-10-22T22:49:35.829Z,100929.00
2022-10-22T22:52:04.176Z,100934.34
2022-10-22T22:54:30.820Z,100932.53
2022-10-22T22:56:59.490Z,100932.53
2022-10-22T22:59:27.344Z,100927.31
2022-10-22T23:01:53.896Z,100915.22
2022-10-22T23:04:25.050Z,100912.41
2022-10-22T23:06:52.198Z,100914.22
2022-10-22T23:11:47.212Z,100904.75
2022-10-22T23:14:16.734Z,100900.50
2022-10-22T23:16:49.239Z,100903.13
2022-10-22T23:19:19.221Z,100899.59
2022-10-22T23:21:51.369Z,100902.31
2022-10-22T23:24:21.051Z,100895.25
2022-10-22T23:26:49.930Z,100901.50
2022-10-22T23:29:22.508Z,100898.03
2022-10-22T23:31:50.691Z,100902.28
2022-10-22T23:34:20.452Z,100901.44
2022-10-22T23:36:47.388Z,100896.25
2022-10-22T23:39:17.141Z,100890.09
2022-10-22T23:41:44.070Z,100891.78
2022-10-22T23:44:11.154Z,100881.38
2022-10-22T23:46:38.642Z,100885.78
2022-10-22T23:49:06.887Z,100884.03
2022-10-22T23:51:33.516Z,100883.13
2022-10-22T23:54:02.532Z,100884.91
2022-10-22T23:56:29.681Z,100876.06
2022-10-22T23:58:57.583Z,100890.94
